»·PEaware :: N85AA 9S9-S70

N85AA :: 9S9-S70

FLIGHT INFORMATION

Flight Status: Arrived
Operator: Privately registered:
United States
More flights under this callsign
Pilot: Dan A. (12711)
Aircraft: SOCATA TBM-900
(TBM9)
More flights by this aircraft type
Origin: 9S9 Lexington
United States
Destination: S70 Othello Mun
United States
More flights between these airports :: More routes between these airports
Route: OLNUC V536 PDT V298 PSC V281 BAKCA
File this flight plan on PilotEdge
Remarks:
Altitude:
(Current/Filed)
9,000ft
Speed:
(Current/Filed)
250kts
Departed: 11-Sep-19 07:28 PM
Arrived: 11-Sep-19 08:01 PM
Distance/Time
Traveled:
84nm/0:33
Distance/Time
To Go:
Arrived

Flight Plot

Page will automatically refresh every two minutes.

Flight plan parsing failed; only flown route is shown


Map Options




Map Legend


Flown Route
Filed Route
Departure Airport
Arrival Airport
Navaid (VOR, NDB)
Fix

Horizontal Profiles

Position Reports

Time Latitude Longitude Heading Altitude Ground
Speed
11-Sep-19 19:01 45.451225 -119.683854 220 1637ft 0kts
11-Sep-19 19:02 45.451225 -119.683854 220 1637ft 0kts
11-Sep-19 19:03 45.451225 -119.683854 220 1637ft 0kts
11-Sep-19 19:04 45.451225 -119.683854 220 1637ft 0kts
11-Sep-19 19:05 45.451225 -119.683854 220 1637ft 0kts
11-Sep-19 19:06 45.451225 -119.683854 220 1637ft 0kts
11-Sep-19 19:07 45.451225 -119.683854 220 1637ft 0kts
11-Sep-19 19:08 45.451225 -119.683854 220 1637ft 0kts
11-Sep-19 19:09 45.451225 -119.683854 220 1637ft 0kts
11-Sep-19 19:10 45.451225 -119.683854 220 1637ft 0kts
11-Sep-19 19:11 45.451225 -119.683854 220 1637ft 0kts
11-Sep-19 19:12 45.451225 -119.683854 220 1637ft 0kts
11-Sep-19 19:13 45.451225 -119.683854 220 1637ft 0kts
11-Sep-19 19:14 45.451225 -119.683854 220 1637ft 0kts
11-Sep-19 19:15 45.451225 -119.683854 220 1637ft 0kts
11-Sep-19 19:16 45.451225 -119.683854 220 1637ft 0kts
11-Sep-19 19:17 45.451225 -119.683854 220 1637ft 0kts
11-Sep-19 19:18 45.451225 -119.683854 220 1637ft 0kts
11-Sep-19 19:19 45.451225 -119.683854 220 1637ft 0kts
11-Sep-19 19:20 45.451225 -119.683854 220 1637ft 0kts
11-Sep-19 19:21 45.451225 -119.683854 220 1637ft 0kts
11-Sep-19 19:22 45.451225 -119.683854 220 1637ft 0kts
11-Sep-19 19:23 45.451191 -119.683976 272 1637ft 0kts
11-Sep-19 19:24 45.452696 -119.684262 60 1637ft 12kts
11-Sep-19 19:25 45.452853 -119.682379 17 1637ft 0kts
11-Sep-19 19:26 45.452912 -119.682361 6 1637ft 2kts
11-Sep-19 19:27 45.454934 -119.698311 276 1661ft 122kts
11-Sep-19 19:28 45.445910 -119.706421 28 2731ft 138kts
11-Sep-19 19:29 45.461493 -119.664255 72 4495ft 149kts
11-Sep-19 19:30 45.474031 -119.608614 67 6492ft 151kts
11-Sep-19 19:31 45.488038 -119.550887 67 8258ft 158kts
11-Sep-19 19:32 45.503481 -119.487051 69 9413ft 189kts
11-Sep-19 19:33 45.522942 -119.406060 70 9227ft 242kts
11-Sep-19 19:34 45.544673 -119.315607 71 9085ft 245kts
11-Sep-19 19:35 45.566977 -119.222456 71 8962ft 248kts
11-Sep-19 19:36 45.589168 -119.129396 71 8959ft 252kts
11-Sep-19 19:37 45.632173 -119.051117 50 9110ft 251kts
11-Sep-19 19:38 45.678007 -118.972691 50 8942ft 262kts
11-Sep-19 19:39 45.739475 -118.949049 344 9049ft 246kts
11-Sep-19 19:40 45.806211 -118.971302 348 9044ft 253kts
11-Sep-19 19:42 45.874301 -118.992360 347 8890ft 237kts
11-Sep-19 19:43 45.937210 -119.012834 345 9075ft 229kts
11-Sep-19 19:44 46.000899 -119.032768 345 8925ft 235kts
11-Sep-19 19:45 46.065191 -119.052929 345 8979ft 242kts
11-Sep-19 19:46 46.128614 -119.072790 344 9047ft 238kts
11-Sep-19 19:47 46.193722 -119.093266 345 9065ft 240kts
11-Sep-19 19:48 46.259274 -119.113700 345 9115ft 239kts
11-Sep-19 19:49 46.326018 -119.128898 350 8681ft 257kts
11-Sep-19 19:50 46.396268 -119.143501 351 7329ft 252kts
11-Sep-19 19:51 46.464808 -119.157966 350 6154ft 245kts
11-Sep-19 19:52 46.530836 -119.158771 11 4810ft 236kts
11-Sep-19 19:53 46.590523 -119.141197 9 4669ft 201kts
11-Sep-19 19:54 46.637718 -119.171427 326 4360ft 198kts
11-Sep-19 19:55 46.686066 -119.206096 332 2784ft 174kts
11-Sep-19 19:56 46.730159 -119.228820 345 1887ft 161kts
11-Sep-19 19:57 46.770758 -119.253265 349 2180ft 160kts
11-Sep-19 19:58 46.790431 -119.205158 74 1896ft 168kts
11-Sep-19 19:59 46.798330 -119.146254 89 1400ft 142kts
11-Sep-19 20:00 46.794473 -119.094584 87 1282ft 117kts
11-Sep-19 20:01 46.795864 -119.075006 303 1142ft 0kts
11-Sep-19 20:01 46.795863 -119.075006 303 1142ft 0kts
11-Sep-19 20:03 46.795863 -119.075006 303 1142ft 0kts
11-Sep-19 20:03 46.795863 -119.075006 303 1142ft 0kts
11-Sep-19 20:04 46.795863 -119.075006 303 1142ft 0kts
11-Sep-19 20:06 46.795864 -119.075006 303 1142ft 0kts
11-Sep-19 20:06 46.795929 -119.075862 268 1142ft 8kts
11-Sep-19 20:07 46.795302 -119.080978 190 1142ft 6kts
11-Sep-19 20:08 46.794942 -119.083787 272 1142ft 10kts
11-Sep-19 20:09 46.794581 -119.087994 172 1142ft 8kts
11-Sep-19 20:10 46.796191 -119.062450 58 1466ft 131kts
11-Sep-19 20:11 46.819765 -119.068876 268 2318ft 173kts
11-Sep-19 20:12 46.816341 -119.137450 255 1902ft 152kts
11-Sep-19 20:13 46.794504 -119.144915 79 1508ft 124kts
11-Sep-19 20:14 46.794538 -119.095866 137 2034ft 161kts

Navigation Log

Ident Type
Flight plan parsing failed, navigation log unavailable